sensor_id;sensor_type;location;lat;lon;timestamp;temperature;humidity
19348;DHT22;9810;52.480;9.806;2022-08-05T00:00:02;20.30;99.90
19348;DHT22;9810;52.480;9.806;2022-08-05T00:02:29;20.30;99.90
19348;DHT22;9810;52.480;9.806;2022-08-05T00:04:56;20.30;99.90
19348;DHT22;9810;52.480;9.806;2022-08-05T00:07:24;20.20;99.90
19348;DHT22;9810;52.480;9.806;2022-08-05T00:09:51;20.10;99.90
19348;DHT22;9810;52.480;9.806;2022-08-05T00:12:18;20.00;99.90
19348;DHT22;9810;52.480;9.806;2022-08-05T00:14:46;20.10;99.90
19348;DHT22;9810;52.480;9.806;2022-08-05T00:17:16;20.20;99.90
19348;DHT22;9810;52.480;9.806;2022-08-05T00:19:43;20.10;99.90
19348;DHT22;9810;52.480;9.806;2022-08-05T00:22:11;20.10;99.90
19348;DHT22;9810;52.480;9.806;2022-08-05T00:24:38;19.90;99.90
19348;DHT22;9810;52.480;9.806;2022-08-05T00:27:05;19.90;99.90
19348;DHT22;9810;52.480;9.806;2022-08-05T00:29:32;19.80;99.90
19348;DHT22;9810;52.480;9.806;2022-08-05T00:32:00;19.70;99.90
19348;DHT22;9810;52.480;9.806;2022-08-05T00:34:30;19.60;99.90
19348;DHT22;9810;52.480;9.806;2022-08-05T00:36:57;19.70;99.90
19348;DHT22;9810;52.480;9.806;2022-08-05T00:39:25;19.80;99.90
19348;DHT22;9810;52.480;9.806;2022-08-05T00:41:51;19.60;99.90
19348;DHT22;9810;52.480;9.806;2022-08-05T00:44:19;19.70;99.90
19348;DHT22;9810;52.480;9.806;2022-08-05T00:46:46;19.70;99.90
19348;DHT22;9810;52.480;9.806;2022-08-05T00:49:13;19.50;99.90
19348;DHT22;9810;52.480;9.806;2022-08-05T00:51:45;19.50;99.90
19348;DHT22;9810;52.480;9.806;2022-08-05T00:54:12;19.50;99.90
19348;DHT22;9810;52.480;9.806;2022-08-05T00:56:40;19.60;99.90
19348;DHT22;9810;52.480;9.806;2022-08-05T00:59:07;19.50;99.90
19348;DHT22;9810;52.480;9.806;2022-08-05T01:01:34;19.60;99.90
19348;DHT22;9810;52.480;9.806;2022-08-05T01:04:02;19.60;99.90
19348;DHT22;9810;52.480;9.806;2022-08-05T01:06:29;19.60;99.90
19348;DHT22;9810;52.480;9.806;2022-08-05T01:08:58;19.40;99.90
19348;DHT22;9810;52.480;9.806;2022-08-05T01:11:29;19.30;99.90
19348;DHT22;9810;52.480;9.806;2022-08-05T01:14:04;19.20;99.90
19348;DHT22;9810;52.480;9.806;2022-08-05T01:16:38;19.10;99.90
19348;DHT22;9810;52.480;9.806;2022-08-05T01:19:29;19.20;99.90
19348;DHT22;9810;52.480;9.806;2022-08-05T01:22:24;19.10;99.90
19348;DHT22;9810;52.480;9.806;2022-08-05T01:28:12;19.20;99.90
19348;DHT22;9810;52.480;9.806;2022-08-05T01:30:45;19.20;99.90
19348;DHT22;9810;52.480;9.806;2022-08-05T01:33:14;19.00;99.90
19348;DHT22;9810;52.480;9.806;2022-08-05T01:35:45;18.90;99.90
19348;DHT22;9810;52.480;9.806;2022-08-05T01:38:14;18.90;99.90
19348;DHT22;9810;52.480;9.806;2022-08-05T01:40:43;19.00;99.90
19348;DHT22;9810;52.480;9.806;2022-08-05T01:43:14;19.00;99.90
19348;DHT22;9810;52.480;9.806;2022-08-05T01:45:42;19.00;99.90
19348;DHT22;9810;52.480;9.806;2022-08-05T01:48:10;19.10;99.90
19348;DHT22;9810;52.480;9.806;2022-08-05T01:50:39;18.90;99.90
19348;DHT22;9810;52.480;9.806;2022-08-05T01:53:11;19.00;99.90
19348;DHT22;9810;52.480;9.806;2022-08-05T01:55:42;18.90;99.90
19348;DHT22;9810;52.480;9.806;2022-08-05T01:58:10;18.80;99.90
19348;DHT22;9810;52.480;9.806;2022-08-05T02:00:41;18.80;99.90
19348;DHT22;9810;52.480;9.806;2022-08-05T02:03:12;18.90;99.90
19348;DHT22;9810;52.480;9.806;2022-08-05T02:05:42;19.00;99.90
19348;DHT22;9810;52.480;9.806;2022-08-05T02:08:11;18.90;99.90
19348;DHT22;9810;52.480;9.806;2022-08-05T02:10:41;18.80;99.90
19348;DHT22;9810;52.480;9.806;2022-08-05T02:13:14;18.80;99.90
19348;DHT22;9810;52.480;9.806;2022-08-05T02:15:49;19.10;99.90
19348;DHT22;9810;52.480;9.806;2022-08-05T02:18:24;18.90;99.90
19348;DHT22;9810;52.480;9.806;2022-08-05T02:20:56;18.90;99.90
19348;DHT22;9810;52.480;9.806;2022-08-05T02:23:31;18.90;99.90
19348;DHT22;9810;52.480;9.806;2022-08-05T02:25:59;18.90;99.90
19348;DHT22;9810;52.480;9.806;2022-08-05T02:28:30;19.30;99.90
19348;DHT22;9810;52.480;9.806;2022-08-05T02:31:06;19.50;99.90
19348;DHT22;9810;52.480;9.806;2022-08-05T02:33:37;19.50;99.90
19348;DHT22;9810;52.480;9.806;2022-08-05T02:36:09;19.50;99.90
19348;DHT22;9810;52.480;9.806;2022-08-05T02:38:38;19.30;99.90
19348;DHT22;9810;52.480;9.806;2022-08-05T02:41:07;19.20;99.90
19348;DHT22;9810;52.480;9.806;2022-08-05T02:43:36;18.80;99.90
19348;DHT22;9810;52.480;9.806;2022-08-05T02:46:06;18.70;99.90
19348;DHT22;9810;52.480;9.806;2022-08-05T02:48:36;18.70;99.90
19348;DHT22;9810;52.480;9.806;2022-08-05T02:51:04;18.70;99.90
19348;DHT22;9810;52.480;9.806;2022-08-05T02:53:31;18.90;99.90
19348;DHT22;9810;52.480;9.806;2022-08-05T02:56:00;19.00;99.90
19348;DHT22;9810;52.480;9.806;2022-08-05T02:58:28;19.00;99.90
19348;DHT22;9810;52.480;9.806;2022-08-05T03:00:59;19.10;99.90
19348;DHT22;9810;52.480;9.806;2022-08-05T03:03:29;19.10;99.90
19348;DHT22;9810;52.480;9.806;2022-08-05T03:05:58;19.20;99.90
19348;DHT22;9810;52.480;9.806;2022-08-05T03:08:26;19.10;99.90
19348;DHT22;9810;52.480;9.806;2022-08-05T03:10:53;19.20;99.90
19348;DHT22;9810;52.480;9.806;2022-08-05T03:13:21;19.10;99.90
19348;DHT22;9810;52.480;9.806;2022-08-05T03:15:48;19.20;99.90
19348;DHT22;9810;52.480;9.806;2022-08-05T03:18:15;19.20;99.90
19348;DHT22;9810;52.480;9.806;2022-08-05T03:20:44;18.90;99.90
19348;DHT22;9810;52.480;9.806;2022-08-05T03:23:12;18.80;99.90
19348;DHT22;9810;52.480;9.806;2022-08-05T03:25:40;18.60;99.90
19348;DHT22;9810;52.480;9.806;2022-08-05T03:28:08;18.50;99.90
19348;DHT22;9810;52.480;9.806;2022-08-05T03:30:36;18.60;99.90
19348;DHT22;9810;52.480;9.806;2022-08-05T03:33:05;18.60;99.90
19348;DHT22;9810;52.480;9.806;2022-08-05T03:35:32;18.50;99.90
19348;DHT22;9810;52.480;9.806;2022-08-05T03:38:01;18.80;99.90
19348;DHT22;9810;52.480;9.806;2022-08-05T03:40:29;19.00;99.90
19348;DHT22;9810;52.480;9.806;2022-08-05T03:42:56;19.10;99.90
19348;DHT22;9810;52.480;9.806;2022-08-05T03:45:23;19.10;99.90
19348;DHT22;9810;52.480;9.806;2022-08-05T03:47:51;19.10;99.90
19348;DHT22;9810;52.480;9.806;2022-08-05T03:50:19;19.00;99.90
19348;DHT22;9810;52.480;9.806;2022-08-05T03:52:51;18.90;99.90
19348;DHT22;9810;52.480;9.806;2022-08-05T03:55:26;18.60;99.90
19348;DHT22;9810;52.480;9.806;2022-08-05T03:57:56;18.40;99.90
19348;DHT22;9810;52.480;9.806;2022-08-05T04:00:24;18.40;99.90
19348;DHT22;9810;52.480;9.806;2022-08-05T04:02:57;18.60;99.90
19348;DHT22;9810;52.480;9.806;2022-08-05T04:05:31;18.70;99.90
19348;DHT22;9810;52.480;9.806;2022-08-05T04:08:01;18.50;99.90
19348;DHT22;9810;52.480;9.806;2022-08-05T04:10:32;18.40;99.90
19348;DHT22;9810;52.480;9.806;2022-08-05T04:12:59;18.30;99.90
19348;DHT22;9810;52.480;9.806;2022-08-05T04:15:27;18.30;99.90
19348;DHT22;9810;52.480;9.806;2022-08-05T04:17:54;18.40;99.90
19348;DHT22;9810;52.480;9.806;2022-08-05T04:20:22;18.50;99.90
19348;DHT22;9810;52.480;9.806;2022-08-05T04:22:50;18.40;99.90
19348;DHT22;9810;52.480;9.806;2022-08-05T04:25:17;18.40;99.90
19348;DHT22;9810;52.480;9.806;2022-08-05T04:27:46;18.30;99.90
19348;DHT22;9810;52.480;9.806;2022-08-05T04:30:13;18.30;99.90
19348;DHT22;9810;52.480;9.806;2022-08-05T04:32:41;18.20;99.90
19348;DHT22;9810;52.480;9.806;2022-08-05T04:35:08;18.20;99.90
19348;DHT22;9810;52.480;9.806;2022-08-05T04:37:35;18.10;99.90
19348;DHT22;9810;52.480;9.806;2022-08-05T04:40:04;18.10;99.90
19348;DHT22;9810;52.480;9.806;2022-08-05T04:42:32;18.10;99.90
19348;DHT22;9810;52.480;9.806;2022-08-05T04:45:01;18.10;99.90
19348;DHT22;9810;52.480;9.806;2022-08-05T04:47:28;18.20;99.90
19348;DHT22;9810;52.480;9.806;2022-08-05T04:49:55;18.20;99.90
19348;DHT22;9810;52.480;9.806;2022-08-05T04:52:23;18.20;99.90
19348;DHT22;9810;52.480;9.806;2022-08-05T04:54:50;18.10;99.90
19348;DHT22;9810;52.480;9.806;2022-08-05T04:57:17;18.20;99.90
19348;DHT22;9810;52.480;9.806;2022-08-05T04:59:45;18.40;99.90
19348;DHT22;9810;52.480;9.806;2022-08-05T05:02:13;18.50;99.90
19348;DHT22;9810;52.480;9.806;2022-08-05T05:04:41;18.40;99.90
19348;DHT22;9810;52.480;9.806;2022-08-05T05:07:08;18.50;99.90
19348;DHT22;9810;52.480;9.806;2022-08-05T05:09:36;18.60;99.90
19348;DHT22;9810;52.480;9.806;2022-08-05T05:12:04;18.50;99.90
19348;DHT22;9810;52.480;9.806;2022-08-05T05:14:31;18.50;99.90
19348;DHT22;9810;52.480;9.806;2022-08-05T05:16:59;18.50;99.90
19348;DHT22;9810;52.480;9.806;2022-08-05T05:19:28;18.60;99.90
19348;DHT22;9810;52.480;9.806;2022-08-05T05:21:55;18.70;99.90
19348;DHT22;9810;52.480;9.806;2022-08-05T05:24:23;18.80;99.90
19348;DHT22;9810;52.480;9.806;2022-08-05T05:26:50;18.80;99.90
19348;DHT22;9810;52.480;9.806;2022-08-05T05:29:17;18.80;99.90
19348;DHT22;9810;52.480;9.806;2022-08-05T05:31:44;18.90;99.90
19348;DHT22;9810;52.480;9.806;2022-08-05T05:34:12;18.90;99.90
19348;DHT22;9810;52.480;9.806;2022-08-05T05:36:40;18.90;99.90
19348;DHT22;9810;52.480;9.806;2022-08-05T05:39:08;18.80;99.90
19348;DHT22;9810;52.480;9.806;2022-08-05T05:41:35;18.80;99.90
19348;DHT22;9810;52.480;9.806;2022-08-05T05:44:02;19.00;99.90
19348;DHT22;9810;52.480;9.806;2022-08-05T05:46:30;19.00;99.90
19348;DHT22;9810;52.480;9.806;2022-08-05T05:48:57;18.90;99.90
19348;DHT22;9810;52.480;9.806;2022-08-05T05:51:24;19.00;99.90
19348;DHT22;9810;52.480;9.806;2022-08-05T05:53:54;18.80;99.90
19348;DHT22;9810;52.480;9.806;2022-08-05T05:56:22;18.70;99.90
19348;DHT22;9810;52.480;9.806;2022-08-05T05:58:49;18.80;99.90
19348;DHT22;9810;52.480;9.806;2022-08-05T06:01:16;19.00;99.90
19348;DHT22;9810;52.480;9.806;2022-08-05T06:03:44;19.10;99.90
19348;DHT22;9810;52.480;9.806;2022-08-05T06:06:11;18.90;99.90
19348;DHT22;9810;52.480;9.806;2022-08-05T06:08:38;19.10;99.90
19348;DHT22;9810;52.480;9.806;2022-08-05T06:11:07;19.10;99.90
19348;DHT22;9810;52.480;9.806;2022-08-05T06:13:35;19.00;99.90
19348;DHT22;9810;52.480;9.806;2022-08-05T06:16:02;19.30;99.90
19348;DHT22;9810;52.480;9.806;2022-08-05T06:18:30;19.20;99.90
19348;DHT22;9810;52.480;9.806;2022-08-05T06:20:57;19.10;99.90
19348;DHT22;9810;52.480;9.806;2022-08-05T06:23:25;19.10;99.90
19348;DHT22;9810;52.480;9.806;2022-08-05T06:25:52;19.00;99.90
19348;DHT22;9810;52.480;9.806;2022-08-05T06:28:21;19.00;99.90
19348;DHT22;9810;52.480;9.806;2022-08-05T06:30:48;19.10;99.90
19348;DHT22;9810;52.480;9.806;2022-08-05T06:33:16;19.20;99.90
19348;DHT22;9810;52.480;9.806;2022-08-05T06:35:43;19.20;99.90
19348;DHT22;9810;52.480;9.806;2022-08-05T06:38:11;19.10;99.90
19348;DHT22;9810;52.480;9.806;2022-08-05T06:40:38;18.60;99.90
19348;DHT22;9810;52.480;9.806;2022-08-05T06:43:06;18.20;99.90
19348;DHT22;9810;52.480;9.806;2022-08-05T06:45:35;17.80;99.90
19348;DHT22;9810;52.480;9.806;2022-08-05T06:48:02;17.80;99.90
19348;DHT22;9810;52.480;9.806;2022-08-05T06:50:30;17.70;99.90
19348;DHT22;9810;52.480;9.806;2022-08-05T06:52:57;17.50;99.90
19348;DHT22;9810;52.480;9.806;2022-08-05T06:55:24;17.40;99.90
19348;DHT22;9810;52.480;9.806;2022-08-05T06:57:51;17.30;99.90
19348;DHT22;9810;52.480;9.806;2022-08-05T07:00:19;17.40;99.90
19348;DHT22;9810;52.480;9.806;2022-08-05T07:02:47;17.50;99.90
19348;DHT22;9810;52.480;9.806;2022-08-05T07:05:15;17.50;99.90
19348;DHT22;9810;52.480;9.806;2022-08-05T07:07:42;17.60;99.90
19348;DHT22;9810;52.480;9.806;2022-08-05T07:10:13;17.60;99.90
19348;DHT22;9810;52.480;9.806;2022-08-05T07:12:40;17.60;99.90
19348;DHT22;9810;52.480;9.806;2022-08-05T07:15:25;17.70;99.90
19348;DHT22;9810;52.480;9.806;2022-08-05T07:18:11;17.70;99.90
19348;DHT22;9810;52.480;9.806;2022-08-05T07:20:39;17.70;99.90
19348;DHT22;9810;52.480;9.806;2022-08-05T07:23:06;17.70;99.90
19348;DHT22;9810;52.480;9.806;2022-08-05T07:25:33;17.80;99.90
19348;DHT22;9810;52.480;9.806;2022-08-05T07:28:01;17.80;99.90
19348;DHT22;9810;52.480;9.806;2022-08-05T07:30:29;17.80;99.90
19348;DHT22;9810;52.480;9.806;2022-08-05T07:32:57;17.80;99.90
19348;DHT22;9810;52.480;9.806;2022-08-05T07:35:26;17.80;99.90
19348;DHT22;9810;52.480;9.806;2022-08-05T07:37:53;17.80;99.90
19348;DHT22;9810;52.480;9.806;2022-08-05T07:40:22;17.90;99.90
19348;DHT22;9810;52.480;9.806;2022-08-05T07:42:50;17.90;99.90
19348;DHT22;9810;52.480;9.806;2022-08-05T07:45:17;17.90;99.90
19348;DHT22;9810;52.480;9.806;2022-08-05T07:47:45;17.90;99.90
19348;DHT22;9810;52.480;9.806;2022-08-05T07:50:12;18.00;99.90
19348;DHT22;9810;52.480;9.806;2022-08-05T07:52:42;18.20;99.90
19348;DHT22;9810;52.480;9.806;2022-08-05T07:55:09;18.40;99.90
19348;DHT22;9810;52.480;9.806;2022-08-05T07:57:37;18.40;99.90
19348;DHT22;9810;52.480;9.806;2022-08-05T08:00:05;18.30;99.90
19348;DHT22;9810;52.480;9.806;2022-08-05T08:02:33;18.10;99.90
19348;DHT22;9810;52.480;9.806;2022-08-05T08:05:00;17.90;99.90
19348;DHT22;9810;52.480;9.806;2022-08-05T08:07:27;17.90;99.90
19348;DHT22;9810;52.480;9.806;2022-08-05T08:09:56;17.90;99.90
19348;DHT22;9810;52.480;9.806;2022-08-05T08:12:24;18.00;99.90
19348;DHT22;9810;52.480;9.806;2022-08-05T08:14:51;18.20;99.90
19348;DHT22;9810;52.480;9.806;2022-08-05T08:17:18;18.40;99.90
19348;DHT22;9810;52.480;9.806;2022-08-05T08:19:45;18.40;99.90
19348;DHT22;9810;52.480;9.806;2022-08-05T08:22:13;18.70;99.90
19348;DHT22;9810;52.480;9.806;2022-08-05T08:24:40;18.70;99.90
19348;DHT22;9810;52.480;9.806;2022-08-05T08:27:09;18.90;99.90
19348;DHT22;9810;52.480;9.806;2022-08-05T08:29:36;19.40;99.90
19348;DHT22;9810;52.480;9.806;2022-08-05T08:32:03;19.70;99.90
19348;DHT22;9810;52.480;9.806;2022-08-05T08:34:31;19.70;99.90
19348;DHT22;9810;52.480;9.806;2022-08-05T08:36:58;19.80;99.90
19348;DHT22;9810;52.480;9.806;2022-08-05T08:39:25;20.30;99.90
19348;DHT22;9810;52.480;9.806;2022-08-05T08:41:53;20.30;99.90
19348;DHT22;9810;52.480;9.806;2022-08-05T08:44:23;20.50;99.90
19348;DHT22;9810;52.480;9.806;2022-08-05T08:46:51;20.70;99.90
19348;DHT22;9810;52.480;9.806;2022-08-05T08:49:21;20.40;99.90
19348;DHT22;9810;52.480;9.806;2022-08-05T08:51:58;20.80;99.90
19348;DHT22;9810;52.480;9.806;2022-08-05T08:54:27;20.50;99.90
19348;DHT22;9810;52.480;9.806;2022-08-05T08:56:54;20.30;99.90
19348;DHT22;9810;52.480;9.806;2022-08-05T08:59:24;20.70;99.90
19348;DHT22;9810;52.480;9.806;2022-08-05T09:01:51;21.00;99.90
19348;DHT22;9810;52.480;9.806;2022-08-05T09:04:18;21.40;99.90
19348;DHT22;9810;52.480;9.806;2022-08-05T09:06:46;21.00;99.90
19348;DHT22;9810;52.480;9.806;2022-08-05T09:09:14;21.00;99.90
19348;DHT22;9810;52.480;9.806;2022-08-05T09:11:42;20.40;99.90
19348;DHT22;9810;52.480;9.806;2022-08-05T09:14:10;20.50;99.90
19348;DHT22;9810;52.480;9.806;2022-08-05T09:16:39;20.10;99.90
19348;DHT22;9810;52.480;9.806;2022-08-05T09:19:07;20.20;99.90
19348;DHT22;9810;52.480;9.806;2022-08-05T09:21:34;20.00;99.90
19348;DHT22;9810;52.480;9.806;2022-08-05T09:24:03;19.90;99.90
19348;DHT22;9810;52.480;9.806;2022-08-05T09:26:33;19.80;99.90
19348;DHT22;9810;52.480;9.806;2022-08-05T09:29:04;19.80;99.90
19348;DHT22;9810;52.480;9.806;2022-08-05T09:31:32;19.50;99.90
19348;DHT22;9810;52.480;9.806;2022-08-05T09:34:03;19.40;99.90
19348;DHT22;9810;52.480;9.806;2022-08-05T09:36:40;19.40;99.90
19348;DHT22;9810;52.480;9.806;2022-08-05T09:39:08;19.70;99.90
19348;DHT22;9810;52.480;9.806;2022-08-05T09:41:55;19.60;99.90
19348;DHT22;9810;52.480;9.806;2022-08-05T09:44:33;19.30;99.90
19348;DHT22;9810;52.480;9.806;2022-08-05T09:47:11;19.20;99.90
19348;DHT22;9810;52.480;9.806;2022-08-05T09:49:43;19.40;99.90
19348;DHT22;9810;52.480;9.806;2022-08-05T09:52:22;19.20;99.90
19348;DHT22;9810;52.480;9.806;2022-08-05T09:54:55;19.30;99.90
19348;DHT22;9810;52.480;9.806;2022-08-05T09:57:35;19.30;99.90
19348;DHT22;9810;52.480;9.806;2022-08-05T10:00:09;19.00;99.90
19348;DHT22;9810;52.480;9.806;2022-08-05T10:02:40;18.80;99.90
19348;DHT22;9810;52.480;9.806;2022-08-05T10:05:12;18.70;99.90
19348;DHT22;9810;52.480;9.806;2022-08-05T10:07:44;18.90;99.90
19348;DHT22;9810;52.480;9.806;2022-08-05T10:10:11;18.90;99.90
19348;DHT22;9810;52.480;9.806;2022-08-05T10:12:43;19.00;99.90
19348;DHT22;9810;52.480;9.806;2022-08-05T10:15:15;19.20;99.90
19348;DHT22;9810;52.480;9.806;2022-08-05T10:17:44;19.40;99.90
19348;DHT22;9810;52.480;9.806;2022-08-05T10:20:29;19.60;99.90
19348;DHT22;9810;52.480;9.806;2022-08-05T10:22:57;19.40;99.90
19348;DHT22;9810;52.480;9.806;2022-08-05T10:25:24;19.50;99.90
19348;DHT22;9810;52.480;9.806;2022-08-05T10:27:52;19.30;99.90
19348;DHT22;9810;52.480;9.806;2022-08-05T10:30:19;19.20;99.90
19348;DHT22;9810;52.480;9.806;2022-08-05T10:32:47;19.40;99.90
19348;DHT22;9810;52.480;9.806;2022-08-05T10:35:15;19.90;99.90
19348;DHT22;9810;52.480;9.806;2022-08-05T10:37:45;20.00;99.90
19348;DHT22;9810;52.480;9.806;2022-08-05T10:40:19;19.90;99.90
19348;DHT22;9810;52.480;9.806;2022-08-05T10:42:50;19.70;99.90
19348;DHT22;9810;52.480;9.806;2022-08-05T10:45:25;19.50;99.90
19348;DHT22;9810;52.480;9.806;2022-08-05T10:47:52;19.50;99.90
19348;DHT22;9810;52.480;9.806;2022-08-05T10:50:20;19.50;99.90
19348;DHT22;9810;52.480;9.806;2022-08-05T10:52:51;19.30;99.90
19348;DHT22;9810;52.480;9.806;2022-08-05T10:55:22;18.80;99.90
19348;DHT22;9810;52.480;9.806;2022-08-05T10:58:05;19.10;99.90
19348;DHT22;9810;52.480;9.806;2022-08-05T11:00:32;18.90;99.90
19348;DHT22;9810;52.480;9.806;2022-08-05T11:03:10;18.80;99.90
19348;DHT22;9810;52.480;9.806;2022-08-05T11:05:39;18.90;99.90
19348;DHT22;9810;52.480;9.806;2022-08-05T11:08:09;18.60;99.90
19348;DHT22;9810;52.480;9.806;2022-08-05T11:10:37;19.00;99.90
19348;DHT22;9810;52.480;9.806;2022-08-05T11:13:07;19.10;99.90
19348;DHT22;9810;52.480;9.806;2022-08-05T11:15:36;19.10;99.90
19348;DHT22;9810;52.480;9.806;2022-08-05T11:18:07;19.10;99.90
19348;DHT22;9810;52.480;9.806;2022-08-05T11:20:42;19.00;99.90
19348;DHT22;9810;52.480;9.806;2022-08-05T11:23:31;19.20;99.90
19348;DHT22;9810;52.480;9.806;2022-08-05T11:26:06;19.20;99.90
19348;DHT22;9810;52.480;9.806;2022-08-05T11:28:43;19.10;99.90
19348;DHT22;9810;52.480;9.806;2022-08-05T11:31:18;19.00;99.90
19348;DHT22;9810;52.480;9.806;2022-08-05T11:33:57;19.00;99.90
19348;DHT22;9810;52.480;9.806;2022-08-05T11:36:45;19.00;99.90
19348;DHT22;9810;52.480;9.806;2022-08-05T11:39:16;19.30;99.90
19348;DHT22;9810;52.480;9.806;2022-08-05T11:41:50;19.70;99.90
19348;DHT22;9810;52.480;9.806;2022-08-05T11:44:19;19.40;99.90
19348;DHT22;9810;52.480;9.806;2022-08-05T11:46:49;19.20;99.90
19348;DHT22;9810;52.480;9.806;2022-08-05T11:49:18;19.30;99.90
19348;DHT22;9810;52.480;9.806;2022-08-05T11:51:47;19.20;99.90
19348;DHT22;9810;52.480;9.806;2022-08-05T11:54:23;19.00;99.90
19348;DHT22;9810;52.480;9.806;2022-08-05T11:56:53;18.90;99.90
19348;DHT22;9810;52.480;9.806;2022-08-05T11:59:23;19.00;99.90
19348;DHT22;9810;52.480;9.806;2022-08-05T12:01:55;19.00;99.90
19348;DHT22;9810;52.480;9.806;2022-08-05T12:04:23;18.90;99.90
19348;DHT22;9810;52.480;9.806;2022-08-05T12:06:51;18.70;99.90
19348;DHT22;9810;52.480;9.806;2022-08-05T12:09:23;18.60;99.90
19348;DHT22;9810;52.480;9.806;2022-08-05T12:11:52;18.70;99.90
19348;DHT22;9810;52.480;9.806;2022-08-05T12:14:20;18.50;99.90
19348;DHT22;9810;52.480;9.806;2022-08-05T12:16:49;18.30;99.90
19348;DHT22;9810;52.480;9.806;2022-08-05T12:19:16;18.30;99.90
19348;DHT22;9810;52.480;9.806;2022-08-05T12:21:47;18.20;99.90
19348;DHT22;9810;52.480;9.806;2022-08-05T12:24:16;18.30;99.90
19348;DHT22;9810;52.480;9.806;2022-08-05T12:26:48;18.30;99.90
19348;DHT22;9810;52.480;9.806;2022-08-05T12:29:17;18.10;99.90
19348;DHT22;9810;52.480;9.806;2022-08-05T12:31:48;18.20;99.90
19348;DHT22;9810;52.480;9.806;2022-08-05T12:34:16;18.10;99.90
19348;DHT22;9810;52.480;9.806;2022-08-05T12:36:44;18.10;99.90
19348;DHT22;9810;52.480;9.806;2022-08-05T12:39:12;18.20;99.90
19348;DHT22;9810;52.480;9.806;2022-08-05T12:41:40;18.30;99.90
19348;DHT22;9810;52.480;9.806;2022-08-05T12:44:11;18.30;99.90
19348;DHT22;9810;52.480;9.806;2022-08-05T12:46:40;18.30;99.90
19348;DHT22;9810;52.480;9.806;2022-08-05T12:49:08;18.20;99.90
19348;DHT22;9810;52.480;9.806;2022-08-05T12:51:44;18.30;99.90
19348;DHT22;9810;52.480;9.806;2022-08-05T12:54:19;18.30;99.90
19348;DHT22;9810;52.480;9.806;2022-08-05T12:56:48;18.30;99.90
19348;DHT22;9810;52.480;9.806;2022-08-05T12:59:21;18.40;99.90
19348;DHT22;9810;52.480;9.806;2022-08-05T13:01:57;18.30;99.90
19348;DHT22;9810;52.480;9.806;2022-08-05T13:04:26;18.30;99.90
19348;DHT22;9810;52.480;9.806;2022-08-05T13:06:59;18.70;99.90
19348;DHT22;9810;52.480;9.806;2022-08-05T13:09:28;18.80;99.90
19348;DHT22;9810;52.480;9.806;2022-08-05T13:12:02;18.70;99.90
19348;DHT22;9810;52.480;9.806;2022-08-05T13:14:36;18.90;99.90
19348;DHT22;9810;52.480;9.806;2022-08-05T13:17:08;19.10;99.90
19348;DHT22;9810;52.480;9.806;2022-08-05T13:19:36;19.70;99.90
19348;DHT22;9810;52.480;9.806;2022-08-05T13:22:04;19.90;99.90
19348;DHT22;9810;52.480;9.806;2022-08-05T13:24:31;20.00;99.90
19348;DHT22;9810;52.480;9.806;2022-08-05T13:26:59;20.30;99.90
19348;DHT22;9810;52.480;9.806;2022-08-05T13:29:26;20.70;99.90
19348;DHT22;9810;52.480;9.806;2022-08-05T13:31:55;20.50;99.90
19348;DHT22;9810;52.480;9.806;2022-08-05T13:34:25;20.00;99.90
19348;DHT22;9810;52.480;9.806;2022-08-05T13:36:53;19.90;99.90
19348;DHT22;9810;52.480;9.806;2022-08-05T13:39:20;19.80;99.90
19348;DHT22;9810;52.480;9.806;2022-08-05T13:41:47;19.80;99.90
19348;DHT22;9810;52.480;9.806;2022-08-05T13:44:15;19.80;99.90
19348;DHT22;9810;52.480;9.806;2022-08-05T13:46:42;19.80;99.90
19348;DHT22;9810;52.480;9.806;2022-08-05T13:49:11;19.70;99.90
19348;DHT22;9810;52.480;9.806;2022-08-05T13:51:39;19.80;99.90
19348;DHT22;9810;52.480;9.806;2022-08-05T13:54:07;19.80;99.90
19348;DHT22;9810;52.480;9.806;2022-08-05T13:56:35;20.10;99.90
19348;DHT22;9810;52.480;9.806;2022-08-05T13:59:02;19.90;99.90
19348;DHT22;9810;52.480;9.806;2022-08-05T14:01:29;19.80;99.90
19348;DHT22;9810;52.480;9.806;2022-08-05T14:03:56;20.00;99.90
19348;DHT22;9810;52.480;9.806;2022-08-05T14:06:42;20.10;99.90
19348;DHT22;9810;52.480;9.806;2022-08-05T14:09:09;20.50;99.90
19348;DHT22;9810;52.480;9.806;2022-08-05T14:11:37;20.70;99.90
19348;DHT22;9810;52.480;9.806;2022-08-05T14:14:06;20.60;99.90
19348;DHT22;9810;52.480;9.806;2022-08-05T14:16:33;20.40;99.90
19348;DHT22;9810;52.480;9.806;2022-08-05T14:19:00;20.30;99.90
19348;DHT22;9810;52.480;9.806;2022-08-05T14:21:28;20.10;99.90
19348;DHT22;9810;52.480;9.806;2022-08-05T14:23:57;20.40;99.90
19348;DHT22;9810;52.480;9.806;2022-08-05T14:26:24;20.60;99.90
19348;DHT22;9810;52.480;9.806;2022-08-05T14:28:51;20.70;99.90
19348;DHT22;9810;52.480;9.806;2022-08-05T14:31:19;20.80;99.90
19348;DHT22;9810;52.480;9.806;2022-08-05T14:33:47;20.70;99.90
19348;DHT22;9810;52.480;9.806;2022-08-05T14:36:14;20.80;99.90
19348;DHT22;9810;52.480;9.806;2022-08-05T14:38:41;21.00;99.90
19348;DHT22;9810;52.480;9.806;2022-08-05T14:41:10;20.90;99.90
19348;DHT22;9810;52.480;9.806;2022-08-05T14:43:38;21.00;99.90
19348;DHT22;9810;52.480;9.806;2022-08-05T14:46:05;21.10;99.90
19348;DHT22;9810;52.480;9.806;2022-08-05T14:48:32;21.30;99.90
19348;DHT22;9810;52.480;9.806;2022-08-05T14:50:59;21.40;99.90
19348;DHT22;9810;52.480;9.806;2022-08-05T14:53:27;21.50;99.90
19348;DHT22;9810;52.480;9.806;2022-08-05T14:55:54;21.50;99.90
19348;DHT22;9810;52.480;9.806;2022-08-05T14:58:23;21.40;99.90
19348;DHT22;9810;52.480;9.806;2022-08-05T15:00:50;21.50;99.90
19348;DHT22;9810;52.480;9.806;2022-08-05T15:03:17;21.20;99.90
19348;DHT22;9810;52.480;9.806;2022-08-05T15:05:45;21.30;99.90
19348;DHT22;9810;52.480;9.806;2022-08-05T15:08:12;21.40;99.90
19348;DHT22;9810;52.480;9.806;2022-08-05T15:10:39;21.60;99.90
19348;DHT22;9810;52.480;9.806;2022-08-05T15:13:08;21.50;99.90
19348;DHT22;9810;52.480;9.806;2022-08-05T15:15:37;21.10;99.90
19348;DHT22;9810;52.480;9.806;2022-08-05T15:18:04;21.30;99.90
19348;DHT22;9810;52.480;9.806;2022-08-05T15:20:31;21.30;99.90
19348;DHT22;9810;52.480;9.806;2022-08-05T15:23:02;21.30;99.90
19348;DHT22;9810;52.480;9.806;2022-08-05T15:25:29;21.40;99.90
19348;DHT22;9810;52.480;9.806;2022-08-05T15:27:57;21.40;99.90
19348;DHT22;9810;52.480;9.806;2022-08-05T15:30:24;21.30;99.90
19348;DHT22;9810;52.480;9.806;2022-08-05T15:32:54;21.50;99.90
19348;DHT22;9810;52.480;9.806;2022-08-05T15:35:21;21.60;99.90
19348;DHT22;9810;52.480;9.806;2022-08-05T15:37:49;21.60;99.90
19348;DHT22;9810;52.480;9.806;2022-08-05T15:40:16;21.50;99.90
19348;DHT22;9810;52.480;9.806;2022-08-05T15:42:43;21.40;99.90
19348;DHT22;9810;52.480;9.806;2022-08-05T15:45:11;21.20;99.90
19348;DHT22;9810;52.480;9.806;2022-08-05T15:47:39;21.20;99.90
19348;DHT22;9810;52.480;9.806;2022-08-05T15:50:10;21.10;99.90
19348;DHT22;9810;52.480;9.806;2022-08-05T15:52:38;21.00;99.90
19348;DHT22;9810;52.480;9.806;2022-08-05T15:55:07;20.90;99.90
19348;DHT22;9810;52.480;9.806;2022-08-05T15:57:35;21.10;99.90
19348;DHT22;9810;52.480;9.806;2022-08-05T16:00:03;20.90;99.90